Time;durP1;ratioP1;P1;durP2;ratioP2;P2;SDS_P1;SDS_P2;PMS_P1;PMS_P2;Temp;Humidity;BMP_temperature;BMP_pressure;BME280_temperature;BME280_humidity;BME280_pressure;Samples;Min_cycle;Max_cycle;Signal;HPM_P1;HPM_P2
2022/07/04 00:01:11;;;;;;;0.50;0.50;;;19.30;94.60;;;;;;4128574;28;20023;-69
2022/07/04 00:03:12;;;;;;;2.60;0.70;;;19.30;94.80;;;;;;4129430;28;20505;-69
2022/07/04 00:05:13;;;;;;;2.08;0.70;;;19.20;95.00;;;;;;4128911;28;20050;-70
2022/07/04 00:07:14;;;;;;;1.10;0.50;;;19.20;94.90;;;;;;4129546;28;20030;-69
2022/07/04 00:09:14;;;;;;;1.67;0.52;;;19.20;95.40;;;;;;4128445;28;20033;-69
2022/07/04 00:11:15;;;;;;;1.58;0.70;;;19.20;94.90;;;;;;4128846;28;20031;-69
2022/07/04 00:13:15;;;;;;;1.23;0.80;;;19.10;95.30;;;;;;4129514;28;20490;-69
2022/07/04 00:15:16;;;;;;;1.05;0.73;;;19.10;95.40;;;;;;4128717;28;20058;-70
2022/07/04 00:17:17;;;;;;;1.65;0.90;;;19.10;95.70;;;;;;4129316;28;20054;-67
2022/07/04 00:19:17;;;;;;;1.13;0.85;;;19.00;95.70;;;;;;4128382;28;21705;-68
2022/07/04 00:21:18;;;;;;;0.82;0.68;;;19.00;95.70;;;;;;4128311;28;20163;-69
2022/07/04 00:23:18;;;;;;;2.10;0.95;;;19.00;95.30;;;;;;4129230;28;20042;-69
2022/07/04 00:25:19;;;;;;;0.85;0.60;;;19.00;95.20;;;;;;4128578;28;20034;-69
2022/07/04 00:27:19;;;;;;;2.15;0.75;;;19.00;94.70;;;;;;4129334;28;20057;-69
2022/07/04 00:29:20;;;;;;;1.52;0.70;;;19.00;94.40;;;;;;4128267;28;20033;-69
2022/07/04 00:31:21;;;;;;;1.35;0.63;;;19.00;94.10;;;;;;4128356;28;20033;-69
2022/07/04 00:33:21;;;;;;;3.53;1.15;;;19.00;94.60;;;;;;4129234;28;20027;-68
2022/07/04 00:35:22;;;;;;;3.47;0.68;;;19.00;95.50;;;;;;4128697;28;20101;-68
2022/07/04 00:37:22;;;;;;;1.60;0.65;;;19.00;96.10;;;;;;4131233;28;20023;-69
2022/07/04 00:39:23;;;;;;;2.00;0.90;;;19.00;95.80;;;;;;4129164;28;20084;-69
2022/07/04 00:41:24;;;;;;;1.67;0.80;;;18.90;96.60;;;;;;4131749;28;20500;-68
2022/07/04 00:43:26;;;;;;;1.60;0.90;;;19.00;96.40;;;;;;4132302;28;20113;-69
2022/07/04 00:45:27;;;;;;;1.25;1.13;;;19.00;96.70;;;;;;4131933;28;20071;-69
2022/07/04 00:47:27;;;;;;;1.20;0.60;;;18.90;96.60;;;;;;4132096;28;20162;-69
2022/07/04 00:49:28;;;;;;;1.52;0.73;;;18.90;96.70;;;;;;4131334;28;20031;-66
2022/07/04 00:51:28;;;;;;;1.52;0.80;;;18.90;94.80;;;;;;4131633;28;20553;-69
2022/07/04 00:53:30;;;;;;;1.35;0.90;;;18.90;95.10;;;;;;4132080;28;20085;-69
2022/07/04 00:55:30;;;;;;;2.40;0.82;;;18.90;94.70;;;;;;4131686;28;20036;-68
2022/07/04 00:57:31;;;;;;;1.00;0.75;;;18.80;96.10;;;;;;4131824;28;20552;-68
2022/07/04 00:59:31;;;;;;;2.97;0.90;;;18.80;95.80;;;;;;4131309;28;20041;-68
2022/07/04 01:01:33;;;;;;;1.48;0.70;;;18.80;96.70;;;;;;4131361;28;20038;-69
2022/07/04 01:03:34;;;;;;;1.08;0.82;;;18.70;96.60;;;;;;4131894;28;20026;-68
2022/07/04 01:05:34;;;;;;;1.50;0.80;;;18.60;96.70;;;;;;4131298;28;20029;-69
2022/07/04 01:07:36;;;;;;;0.82;0.55;;;18.60;96.20;;;;;;4131778;28;20421;-69
2022/07/04 01:09:36;;;;;;;0.98;0.80;;;18.60;96.20;;;;;;4130987;28;20545;-69
2022/07/04 01:11:37;;;;;;;1.17;0.80;;;18.50;96.50;;;;;;4131479;28;20041;-69
2022/07/04 01:13:38;;;;;;;1.35;0.90;;;18.60;96.40;;;;;;4131598;28;20541;-69
2022/07/04 01:15:38;;;;;;;1.48;0.73;;;18.50;96.10;;;;;;4131349;28;20042;-69
2022/07/04 01:17:39;;;;;;;1.13;0.88;;;18.50;96.00;;;;;;4131374;28;20138;-69
2022/07/04 01:19:39;;;;;;;1.05;0.75;;;18.50;95.80;;;;;;4130918;28;20129;-69
2022/07/04 01:21:40;;;;;;;1.80;0.93;;;18.50;95.60;;;;;;4131794;28;20031;-69
2022/07/04 01:23:41;;;;;;;2.35;1.05;;;18.50;95.50;;;;;;4131261;28;20027;-69
2022/07/04 01:25:42;;;;;;;1.67;1.00;;;18.50;95.30;;;;;;4130968;28;20050;-69
2022/07/04 01:27:43;;;;;;;4.18;0.88;;;18.50;95.20;;;;;;4131195;28;20038;-69
2022/07/04 01:29:43;;;;;;;1.75;0.65;;;18.40;95.40;;;;;;4129548;28;20100;-69
2022/07/04 01:31:44;;;;;;;1.27;0.80;;;18.50;95.10;;;;;;4129878;28;20092;-69
2022/07/04 01:33:44;;;;;;;1.98;0.75;;;18.40;95.20;;;;;;4130570;28;20530;-69
2022/07/04 01:35:46;;;;;;;1.25;0.90;;;18.40;95.40;;;;;;4128032;28;20045;-69
2022/07/04 01:37:47;;;;;;;1.13;0.70;;;18.40;95.10;;;;;;4131442;28;20030;-69
2022/07/04 01:39:48;;;;;;;1.75;0.93;;;18.40;95.00;;;;;;4128513;28;20339;-68
2022/07/04 01:41:48;;;;;;;0.93;0.70;;;18.40;96.80;;;;;;4130867;28;20061;-69
2022/07/04 01:43:49;;;;;;;1.08;1.00;;;18.40;96.70;;;;;;4130893;28;20057;-66
2022/07/04 01:45:49;;;;;;;1.23;1.00;;;18.40;96.80;;;;;;4130784;28;20085;-69
2022/07/04 01:47:50;;;;;;;2.95;0.98;;;18.40;97.10;;;;;;4130249;28;20065;-68
2022/07/04 01:49:51;;;;;;;2.60;1.13;;;18.40;97.20;;;;;;4128963;28;20035;-68
2022/07/04 01:51:51;;;;;;;3.60;1.33;;;18.40;96.40;;;;;;4130653;28;20490;-69
2022/07/04 01:53:52;;;;;;;1.63;0.93;;;18.40;96.40;;;;;;4131467;28;20478;-68
2022/07/04 01:55:53;;;;;;;1.75;0.95;;;18.40;96.60;;;;;;4130863;28;20612;-68
2022/07/04 01:57:53;;;;;;;1.80;1.00;;;18.40;95.90;;;;;;4131165;28;20109;-68
2022/07/04 02:02:13;;;;;;;4.50;1.17;;;18.30;95.30;;;;;;4130849;28;20060;-69
2022/07/04 02:04:14;;;;;;;1.10;1.00;;;18.30;96.80;;;;;;4130984;28;20026;-69
2022/07/04 02:06:14;;;;;;;1.83;0.93;;;18.20;97.10;;;;;;4129758;28;20034;-69
2022/07/04 02:08:15;;;;;;;3.92;1.17;;;18.20;97.20;;;;;;4130691;28;20065;-69
2022/07/04 02:10:16;;;;;;;2.47;1.05;;;18.20;96.80;;;;;;4129658;28;20034;-70
2022/07/04 02:14:35;;;;;;;1.67;0.98;;;18.30;97.90;;;;;;4130720;28;20359;-69
2022/07/04 02:16:38;;;;;;;1.85;0.90;;;18.20;95.20;;;;;;4130139;28;20122;-69
2022/07/04 02:18:38;;;;;;;1.70;0.70;;;18.10;96.10;;;;;;4128828;28;20034;-69
2022/07/04 02:20:39;;;;;;;1.20;0.90;;;18.10;95.80;;;;;;4129284;28;20100;-69
2022/07/04 02:22:39;;;;;;;1.63;1.02;;;18.00;95.50;;;;;;4130651;28;20038;-68
2022/07/04 02:24:40;;;;;;;1.67;0.90;;;18.00;95.90;;;;;;4130644;28;20049;-69
2022/07/04 02:26:41;;;;;;;0.93;0.80;;;18.00;96.10;;;;;;4130287;28;20485;-68
2022/07/04 02:28:42;;;;;;;1.13;0.98;;;18.00;95.80;;;;;;4130077;28;20040;-68
2022/07/04 02:30:42;;;;;;;1.33;1.02;;;18.00;96.00;;;;;;4129444;28;20041;-69
2022/07/04 02:32:43;;;;;;;1.77;1.20;;;18.00;96.10;;;;;;4130350;28;20039;-69
2022/07/04 02:34:43;;;;;;;2.03;1.33;;;18.00;97.10;;;;;;4130400;28;20089;-69
2022/07/04 02:36:44;;;;;;;3.67;1.50;;;18.00;97.80;;;;;;4129771;28;20099;-68
2022/07/04 02:38:45;;;;;;;1.90;1.20;;;18.00;98.20;;;;;;4127445;28;20045;-68
2022/07/04 02:40:45;;;;;;;2.92;1.45;;;18.00;98.90;;;;;;4129807;28;20121;-68
2022/07/04 02:42:46;;;;;;;2.20;1.35;;;18.00;99.00;;;;;;4130833;28;20027;-69
2022/07/04 02:44:47;;;;;;;2.08;1.20;;;18.00;99.00;;;;;;4129486;28;20061;-68
2022/07/04 02:46:48;;;;;;;2.45;1.30;;;18.00;98.90;;;;;;4128808;28;20125;-69
2022/07/04 02:48:48;;;;;;;1.55;1.23;;;18.00;99.30;;;;;;4126798;28;20047;-69
2022/07/04 02:50:49;;;;;;;2.90;1.45;;;18.00;98.80;;;;;;4129196;28;20093;-69
2022/07/04 02:52:50;;;;;;;2.45;1.30;;;18.00;98.50;;;;;;4130210;28;20465;-69
2022/07/04 02:54:52;;;;;;;2.33;1.58;;;18.00;98.40;;;;;;4130249;28;20041;-68
2022/07/04 02:56:53;;;;;;;1.58;1.08;;;18.00;98.80;;;;;;4111752;28;20062;-68
2022/07/04 02:58:53;;;;;;;1.73;1.33;;;18.00;98.00;;;;;;4127780;28;20034;-68
2022/07/04 03:00:54;;;;;;;1.17;1.08;;;18.00;96.90;;;;;;4129234;28;20034;-68
2022/07/04 03:02:54;;;;;;;1.70;1.08;;;17.90;97.20;;;;;;4129905;28;20113;-68
2022/07/04 03:04:55;;;;;;;2.15;0.90;;;17.90;97.20;;;;;;4129727;28;20038;-69
2022/07/04 03:06:55;;;;;;;1.63;1.05;;;17.80;97.30;;;;;;4122897;28;20037;-68
2022/07/04 03:08:56;;;;;;;3.00;1.20;;;17.80;98.30;;;;;;4123751;28;20031;-68
2022/07/04 03:10:57;;;;;;;2.88;1.60;;;17.70;98.90;;;;;;4123184;28;20038;-68
2022/07/04 03:12:57;;;;;;;2.70;1.67;;;17.70;98.90;;;;;;4116106;28;20062;-68
2022/07/04 03:14:59;;;;;;;2.70;1.73;;;17.70;99.90;;;;;;4119053;28;20038;-68
2022/07/04 03:16:59;;;;;;;3.15;1.60;;;17.60;99.90;;;;;;4129114;28;20034;-69
2022/07/04 03:19:00;;;;;;;3.45;2.03;;;17.60;99.90;;;;;;4126906;28;20051;-68
2022/07/04 03:21:01;;;;;;;4.10;2.08;;;17.60;99.90;;;;;;4129118;28;20053;-69
2022/07/04 03:23:02;;;;;;;2.33;2.00;;;17.50;99.90;;;;;;4129663;28;20038;-69
2022/07/04 03:25:05;;;;;;;3.38;1.80;;;17.50;99.90;;;;;;4129482;28;20026;-69
2022/07/04 03:27:05;;;;;;;;;;;17.40;99.90;;;;;;4129876;28;20062;-69
2022/07/04 03:29:06;;;;;;;3.50;1.83;;;17.50;99.90;;;;;;4129064;28;19918;-69
2022/07/04 03:31:06;;;;;;;2.80;1.80;;;17.40;99.90;;;;;;4129021;28;20030;-69
2022/07/04 03:33:07;;;;;;;4.07;2.10;;;17.40;99.90;;;;;;4129419;28;20030;-68
2022/07/04 03:35:08;;;;;;;3.97;2.10;;;17.30;99.90;;;;;;4129279;28;20421;-70
2022/07/04 03:37:08;;;;;;;3.97;2.13;;;17.30;99.90;;;;;;4129350;28;20129;-69
2022/07/04 03:39:09;;;;;;;3.60;2.25;;;17.30;99.90;;;;;;4127284;28;20038;-69
2022/07/04 03:41:10;;;;;;;4.55;2.05;;;17.30;99.90;;;;;;4128794;28;20497;-69
2022/07/04 03:43:10;;;;;;;3.65;1.92;;;17.20;99.90;;;;;;4129277;28;20081;-69
2022/07/04 03:45:11;;;;;;;3.40;2.13;;;17.20;99.90;;;;;;4128798;28;20103;-70
2022/07/04 03:47:12;;;;;;;2.25;2.05;;;17.20;99.90;;;;;;4129445;28;20429;-69
2022/07/04 03:49:13;;;;;;;6.28;2.17;;;17.20;99.90;;;;;;4128582;28;20061;-69
2022/07/04 03:51:14;;;;;;;2.95;2.03;;;17.10;99.90;;;;;;4128798;28;20493;-69
2022/07/04 03:53:15;;;;;;;3.15;2.10;;;17.10;99.90;;;;;;4129150;28;20117;-69
2022/07/04 03:55:16;;;;;;;2.60;2.08;;;17.10;99.90;;;;;;4112064;28;20034;-70
2022/07/04 03:57:17;;;;;;;2.78;2.00;;;17.10;99.90;;;;;;4129593;28;20505;-69
2022/07/04 03:59:17;;;;;;;3.15;1.92;;;17.10;99.90;;;;;;4127395;28;20065;-69
2022/07/04 04:01:19;;;;;;;2.58;2.30;;;17.10;99.90;;;;;;4128040;28;20033;-69
2022/07/04 04:05:39;;;;;;;2.30;1.98;;;17.10;99.90;;;;;;4125887;28;20027;-69
2022/07/04 04:07:39;;;;;;;2.63;1.70;;;17.10;99.90;;;;;;4128004;28;20033;-69
2022/07/04 04:09:40;;;;;;;2.97;1.70;;;17.10;99.90;;;;;;4126491;28;20074;-69
2022/07/04 04:11:40;;;;;;;3.20;2.17;;;17.10;99.90;;;;;;4129988;28;20077;-69
2022/07/04 04:13:41;;;;;;;2.63;1.80;;;17.10;99.90;;;;;;4132330;28;20038;-69
2022/07/04 04:15:41;;;;;;;4.85;1.92;;;17.20;99.90;;;;;;4132401;28;20042;-69
2022/07/04 04:17:42;;;;;;;2.45;1.92;;;17.20;99.90;;;;;;4145299;28;20042;-69
2022/07/04 04:19:43;;;;;;;3.33;2.28;;;17.20;99.90;;;;;;4129886;28;20093;-69
2022/07/04 04:21:43;;;;;;;5.75;2.05;;;17.20;99.90;;;;;;4131751;28;20045;-69
2022/07/04 04:23:44;;;;;;;3.95;2.20;;;17.20;99.90;;;;;;4147499;28;20570;-69
2022/07/04 04:25:45;;;;;;;2.95;1.90;;;17.20;99.90;;;;;;4132053;28;20117;-69
2022/07/04 04:27:45;;;;;;;2.45;1.98;;;17.20;99.90;;;;;;4130694;28;20548;-69
2022/07/04 04:29:46;;;;;;;2.67;2.00;;;17.20;99.90;;;;;;4129961;28;20363;-69
2022/07/04 04:31:47;;;;;;;2.80;1.88;;;17.20;99.90;;;;;;4130318;28;20022;-69
2022/07/04 04:33:48;;;;;;;6.05;2.30;;;17.30;99.90;;;;;;4131126;28;20042;-69
2022/07/04 04:35:48;;;;;;;3.22;2.03;;;17.30;99.90;;;;;;4131936;28;20117;-69
2022/07/04 04:37:49;;;;;;;4.50;2.17;;;17.30;99.90;;;;;;4132039;28;20485;-69
2022/07/04 04:39:49;;;;;;;2.42;1.80;;;17.30;99.90;;;;;;4129187;28;20034;-69
2022/07/04 04:41:50;;;;;;;3.13;2.03;;;17.40;99.90;;;;;;4131731;28;20038;-69
2022/07/04 04:43:51;;;;;;;2.92;1.90;;;17.40;99.90;;;;;;4131180;28;20047;-69
2022/07/04 04:45:52;;;;;;;3.40;2.17;;;17.40;99.90;;;;;;4131765;28;20504;-69
2022/07/04 04:47:53;;;;;;;5.38;2.75;;;17.40;99.90;;;;;;4132145;28;20470;-69
2022/07/04 04:49:54;;;;;;;3.75;2.63;;;17.30;99.90;;;;;;4130903;28;20027;-69
2022/07/04 04:51:54;;;;;;;3.40;2.35;;;17.40;99.90;;;;;;4131484;28;20482;-68
2022/07/04 04:53:55;;;;;;;2.63;2.30;;;17.40;99.90;;;;;;4132303;28;20473;-69
2022/07/04 04:55:55;;;;;;;5.35;2.70;;;17.40;99.90;;;;;;4131590;28;20034;-68
2022/07/04 04:57:56;;;;;;;5.20;2.35;;;17.40;99.90;;;;;;4131227;28;20042;-69
2022/07/04 04:59:56;;;;;;;3.08;2.30;;;17.40;99.90;;;;;;4128881;28;20121;-69
2022/07/04 05:01:57;;;;;;;3.50;2.03;;;17.40;99.90;;;;;;4130539;28;20022;-69
2022/07/04 05:03:58;;;;;;;3.22;2.17;;;17.40;99.90;;;;;;4130585;28;20379;-69
2022/07/04 05:05:59;;;;;;;5.30;2.50;;;17.50;99.90;;;;;;4131351;28;20088;-69
2022/07/04 05:07:59;;;;;;;3.10;2.08;;;17.50;99.90;;;;;;4131763;28;20355;-69
2022/07/04 05:10:00;;;;;;;2.80;1.80;;;17.50;99.90;;;;;;4131201;28;20067;-69
2022/07/04 05:12:01;;;;;;;4.72;2.33;;;17.60;99.90;;;;;;4130590;28;20375;-69
2022/07/04 05:14:02;;;;;;;4.18;2.15;;;17.70;99.90;;;;;;4131272;28;20030;-68
2022/07/04 05:16:03;;;;;;;3.90;2.35;;;17.70;99.90;;;;;;4131061;28;20113;-69
2022/07/04 05:18:03;;;;;;;6.18;1.83;;;17.70;99.90;;;;;;4131381;28;20030;-69
2022/07/04 05:20:04;;;;;;;3.30;2.42;;;17.70;99.90;;;;;;4128791;28;20034;-70
2022/07/04 05:22:05;;;;;;;4.75;2.47;;;17.80;99.90;;;;;;4127842;28;20100;-70
2022/07/04 05:24:05;;;;;;;3.60;2.42;;;17.80;99.90;;;;;;4132920;28;20034;-69
2022/07/04 05:26:06;;;;;;;4.28;2.88;;;17.80;99.90;;;;;;4128810;28;20134;-69
2022/07/04 05:28:07;;;;;;;3.15;1.90;;;17.70;99.90;;;;;;4135869;28;20026;-69
2022/07/04 05:30:08;;;;;;;3.72;2.25;;;17.70;99.90;;;;;;4133417;28;20070;-75
2022/07/04 05:32:09;;;;;;;5.65;2.65;;;17.80;99.90;;;;;;4137498;28;20038;-73
2022/07/04 05:34:09;;;;;;;3.97;2.55;;;17.80;99.90;;;;;;4137494;28;20045;-73
2022/07/04 05:36:10;;;;;;;6.35;2.95;;;17.80;99.90;;;;;;4136785;28;20040;-73
2022/07/04 05:38:11;;;;;;;4.07;2.20;;;17.80;99.90;;;;;;4132828;28;20050;-73
2022/07/04 05:40:12;;;;;;;7.28;2.80;;;17.80;99.90;;;;;;4133851;28;20066;-73
2022/07/04 05:42:12;;;;;;;2.78;1.80;;;17.70;99.90;;;;;;4136738;28;20047;-73
2022/07/04 05:44:13;;;;;;;5.38;2.53;;;17.70;99.90;;;;;;4135853;28;20102;-73
2022/07/04 05:46:13;;;;;;;4.75;2.42;;;17.80;99.90;;;;;;4133765;28;20034;-73
2022/07/04 05:48:14;;;;;;;3.63;2.13;;;17.80;99.90;;;;;;4134536;28;20113;-73
2022/07/04 05:50:15;;;;;;;4.85;2.40;;;17.80;99.90;;;;;;4133192;28;20034;-73
2022/07/04 05:52:16;;;;;;;5.03;2.10;;;17.90;99.90;;;;;;4135450;28;20113;-73
2022/07/04 05:54:17;;;;;;;3.78;2.15;;;18.10;99.90;;;;;;4134289;28;20034;-73
2022/07/04 05:56:18;;;;;;;3.63;1.98;;;18.40;99.90;;;;;;4128388;28;20070;-73
2022/07/04 05:58:18;;;;;;;5.47;2.00;;;18.70;99.90;;;;;;4122416;28;20382;-73
2022/07/04 06:00:19;;;;;;;3.08;1.90;;;19.20;99.90;;;;;;4132772;28;20046;-74
2022/07/04 06:02:19;;;;;;;4.25;2.10;;;19.60;99.90;;;;;;4134298;28;20505;-73
2022/07/04 06:04:20;;;;;;;2.95;1.48;;;20.00;99.90;;;;;;4132314;28;20030;-73
2022/07/04 06:06:20;;;;;;;1.60;1.33;;;20.50;99.90;;;;;;4126370;28;20041;-74
2022/07/04 06:08:22;;;;;;;2.88;1.75;;;20.90;99.90;;;;;;4127916;28;20097;-74
2022/07/04 06:10:22;;;;;;;4.20;2.08;;;21.40;99.90;;;;;;4127337;28;20030;-75
2022/07/04 06:12:23;;;;;;;4.35;1.88;;;21.80;99.90;;;;;;4130687;28;20037;-74
2022/07/04 06:14:23;;;;;;;6.70;1.65;;;22.10;99.00;;;;;;4126585;28;20098;-74
2022/07/04 06:16:24;;;;;;;2.65;1.48;;;22.50;97.80;;;;;;4130133;28;20482;-75
2022/07/04 06:18:27;;;;;;;3.78;2.05;;;22.60;98.60;;;;;;4129644;28;20034;-75
2022/07/04 06:20:27;;;;;;;;;;;22.80;95.70;;;;;;4127078;28;20038;-75
2022/07/04 06:22:28;;;;;;;2.10;1.25;;;23.00;95.90;;;;;;4128253;28;19984;-74
2022/07/04 06:24:29;;;;;;;3.92;1.30;;;23.30;95.80;;;;;;4136384;28;20029;-74
2022/07/04 06:26:30;;;;;;;4.38;1.30;;;23.50;95.20;;;;;;4145120;28;20034;-74
2022/07/04 06:28:30;;;;;;;4.00;1.30;;;23.40;94.50;;;;;;4130736;28;20397;-74
2022/07/04 06:30:31;;;;;;;2.15;0.70;;;23.40;93.90;;;;;;4128329;28;20042;-74
2022/07/04 06:32:47;;;;;;;2.00;1.40;;;23.70;93.00;;;;;;4130205;28;20034;-75
2022/07/04 06:37:07;;;;;;;2.25;1.20;;;23.70;92.50;;;;;;4128147;28;20046;-74
2022/07/04 06:39:07;;;;;;;2.60;1.20;;;23.90;92.00;;;;;;4122615;28;20037;-74
2022/07/04 06:41:08;;;;;;;2.50;1.13;;;23.90;93.10;;;;;;4129209;28;20049;-74
2022/07/04 06:43:08;;;;;;;4.53;1.10;;;23.80;93.70;;;;;;4126411;28;20465;-75
2022/07/04 06:45:09;;;;;;;2.67;0.90;;;23.90;92.10;;;;;;4123400;28;20449;-75
2022/07/04 06:47:10;;;;;;;2.20;0.77;;;23.50;92.50;;;;;;4124762;28;20038;-75
2022/07/04 06:49:11;;;;;;;1.45;0.68;;;23.50;91.80;;;;;;4122271;28;20390;-75
2022/07/04 06:51:11;;;;;;;2.25;0.90;;;23.40;91.40;;;;;;4125980;28;20053;-75
2022/07/04 06:53:12;;;;;;;2.08;0.77;;;23.40;92.80;;;;;;4125620;28;20041;-74
2022/07/04 06:55:13;;;;;;;3.17;0.70;;;23.50;92.40;;;;;;4135333;28;20052;-75
2022/07/04 06:57:13;;;;;;;5.18;1.10;;;23.40;93.80;;;;;;4124699;28;20089;-74
2022/07/04 06:59:14;;;;;;;2.97;0.80;;;23.30;92.50;;;;;;4127230;28;20027;-75
2022/07/04 07:01:16;;;;;;;2.40;1.02;;;23.20;91.40;;;;;;4129081;28;20092;-75
2022/07/04 07:03:16;;;;;;;2.85;0.88;;;23.20;92.40;;;;;;4129892;28;20041;-75
2022/07/04 07:05:17;;;;;;;2.45;0.73;;;23.20;92.30;;;;;;4126453;28;20053;-75
2022/07/04 07:07:18;;;;;;;1.08;0.50;;;23.10;91.80;;;;;;4125616;28;20088;-75
2022/07/04 07:09:18;;;;;;;2.53;1.02;;;23.20;92.10;;;;;;4127358;28;20395;-75
2022/07/04 07:11:19;;;;;;;2.15;0.70;;;23.10;93.00;;;;;;4144634;28;20445;-74
2022/07/04 07:13:20;;;;;;;2.05;0.90;;;23.10;92.40;;;;;;4145621;28;20412;-75
2022/07/04 07:15:21;;;;;;;1.52;0.77;;;23.10;92.60;;;;;;4128989;28;20042;-75
2022/07/04 07:17:21;;;;;;;0.93;0.60;;;23.10;93.00;;;;;;4129960;28;20043;-75
2022/07/04 07:19:22;;;;;;;2.10;1.00;;;23.10;93.80;;;;;;4127090;28;20062;-75
2022/07/04 07:21:22;;;;;;;2.55;0.70;;;23.10;93.10;;;;;;4129106;28;20581;-75
2022/07/04 07:23:23;;;;;;;4.00;1.30;;;23.10;93.20;;;;;;4129455;28;20465;-75
2022/07/04 07:25:24;;;;;;;2.75;0.70;;;23.00;92.90;;;;;;4129251;28;20077;-75
2022/07/04 07:27:25;;;;;;;2.33;0.70;;;23.00;92.80;;;;;;4129351;28;20126;-75
2022/07/04 07:29:25;;;;;;;1.75;0.70;;;22.90;92.60;;;;;;4122030;28;20482;-75
2022/07/04 07:31:26;;;;;;;2.92;1.02;;;22.90;94.70;;;;;;4140646;28;20030;-75
2022/07/04 07:33:26;;;;;;;2.25;0.70;;;22.90;94.00;;;;;;4129135;28;20486;-74
2022/07/04 07:35:27;;;;;;;3.65;0.85;;;23.10;94.00;;;;;;4128032;28;20065;-73
2022/07/04 07:37:28;;;;;;;3.03;1.05;;;23.20;93.80;;;;;;4128898;28;20026;-74
2022/07/04 07:39:28;;;;;;;1.55;0.50;;;23.20;93.60;;;;;;4125983;28;20026;-74
2022/07/04 07:41:29;;;;;;;2.05;0.65;;;23.30;94.50;;;;;;4128005;28;20088;-74
2022/07/04 07:43:29;;;;;;;1.20;0.70;;;23.30;94.10;;;;;;4127556;28;20042;-75
2022/07/04 07:45:30;;;;;;;2.05;0.65;;;23.30;94.00;;;;;;4114035;28;20096;-74
2022/07/04 07:47:31;;;;;;;4.15;1.10;;;23.30;94.10;;;;;;4142034;28;20077;-74
2022/07/04 07:49:31;;;;;;;3.15;0.90;;;23.30;93.20;;;;;;4127241;28;20030;-74
2022/07/04 07:51:32;;;;;;;2.72;0.95;;;23.20;92.80;;;;;;4123167;28;20018;-75
2022/07/04 07:53:33;;;;;;;3.45;0.88;;;23.30;93.40;;;;;;4128157;28;20026;-74
2022/07/04 07:55:33;;;;;;;1.63;0.65;;;23.30;93.90;;;;;;4124994;28;20030;-74
2022/07/04 07:57:34;;;;;;;2.13;0.40;;;23.40;93.50;;;;;;4128115;28;20161;-75
2022/07/04 07:59:34;;;;;;;2.30;0.57;;;23.50;94.10;;;;;;4126030;28;20034;-74
2022/07/04 08:01:35;;;;;;;3.20;1.00;;;23.50;93.00;;;;;;4127226;28;20022;-73
2022/07/04 08:05:55;;;;;;;2.13;0.60;;;23.70;92.80;;;;;;4127620;28;20038;-74
2022/07/04 08:07:55;;;;;;;3.17;0.98;;;23.80;92.80;;;;;;4127777;28;20456;-74
2022/07/04 08:09:56;;;;;;;1.92;0.57;;;23.80;92.40;;;;;;4124467;28;20038;-74
2022/07/04 08:11:57;;;;;;;2.58;0.75;;;23.80;91.80;;;;;;4126910;28;20026;-74
2022/07/04 08:13:58;;;;;;;2.85;1.00;;;23.90;92.60;;;;;;4126428;28;20034;-73
2022/07/04 08:15:58;;;;;;;1.63;0.63;;;23.90;90.90;;;;;;4128313;28;20037;-74
2022/07/04 08:17:59;;;;;;;2.85;0.70;;;24.00;91.50;;;;;;4137172;28;20085;-74
2022/07/04 08:20:00;;;;;;;3.45;1.23;;;24.10;91.80;;;;;;4123762;28;20487;-73
2022/07/04 08:22:02;;;;;;;1.90;0.60;;;24.10;92.00;;;;;;4125697;28;20624;-73
2022/07/04 08:24:03;;;;;;;3.20;0.68;;;24.20;91.60;;;;;;4128718;28;20342;-74
2022/07/04 08:26:03;;;;;;;2.67;0.82;;;24.10;90.10;;;;;;4128964;28;20034;-74
2022/07/04 08:28:04;;;;;;;3.88;1.00;;;24.20;90.20;;;;;;4137514;28;20030;-74
2022/07/04 08:30:05;;;;;;;0.90;0.60;;;24.20;90.80;;;;;;4126108;28;20041;-74
2022/07/04 08:32:09;;;;;;;3.70;0.70;;;24.20;91.50;;;;;;4120946;28;20070;-74
2022/07/04 08:34:09;;;;;;;2.15;0.80;;;24.30;91.50;;;;;;4123773;28;20038;-74
2022/07/04 08:36:10;;;;;;;1.02;0.60;;;24.40;92.60;;;;;;4121673;28;20062;-74
2022/07/04 08:38:10;;;;;;;1.95;0.63;;;24.50;91.40;;;;;;4122777;28;20034;-74
2022/07/04 08:40:11;;;;;;;3.15;0.70;;;24.60;92.10;;;;;;4123812;28;20046;-75
2022/07/04 08:42:22;;;;;;;2.15;0.63;;;24.70;92.00;;;;;;4120514;28;20073;-74
2022/07/04 08:44:24;;;;;;;4.00;1.15;;;24.60;90.40;;;;;;4123473;28;20109;-74
2022/07/04 08:46:27;;;;;;;3.42;0.90;;;24.60;89.30;;;;;;4120929;28;20030;-74
2022/07/04 08:48:30;;;;;;;2.58;0.60;;;24.50;90.00;;;;;;4122774;28;20474;-74
2022/07/04 08:50:33;;;;;;;2.13;0.90;;;24.50;90.00;;;;;;4122399;28;20509;-73
2022/07/04 08:52:36;;;;;;;2.15;0.85;;;24.40;88.40;;;;;;4126263;28;20121;-74
2022/07/04 08:59:18;;;;;;;1.52;0.68;;;24.70;88.50;;;;;;4124620;28;20038;-74
2022/07/04 09:01:19;;;;;;;1.80;0.70;;;24.70;86.70;;;;;;4124522;28;20049;-74
2022/07/04 09:03:21;;;;;;;3.85;0.65;;;24.80;89.30;;;;;;4127296;28;20042;-74
2022/07/04 09:05:22;;;;;;;3.10;0.73;;;24.70;87.30;;;;;;4122319;28;20034;-75
2022/07/04 09:07:22;;;;;;;1.58;0.60;;;24.70;89.00;;;;;;4127116;28;20452;-74
2022/07/04 09:09:24;;;;;;;2.10;0.60;;;24.70;88.70;;;;;;4127831;28;20030;-74
2022/07/04 09:11:25;;;;;;;1.02;0.45;;;24.70;88.90;;;;;;4126553;28;20030;-74
2022/07/04 09:13:25;;;;;;;4.90;1.10;;;24.70;87.30;;;;;;4128379;28;20038;-74
2022/07/04 09:15:26;;;;;;;2.10;0.75;;;24.80;88.20;;;;;;4126293;28;20112;-75
2022/07/04 09:17:27;;;;;;;1.55;0.77;;;24.90;87.00;;;;;;4128852;28;20037;-74
2022/07/04 09:19:27;;;;;;;1.55;0.68;;;24.90;86.00;;;;;;4128262;28;20110;-74
2022/07/04 09:21:48;;;;;;;2.33;0.77;;;25.00;85.30;;;;;;4125695;28;20031;-74
2022/07/04 09:23:49;;;;;;;1.38;0.65;;;25.00;81.90;;;;;;4128030;28;20433;-74
2022/07/04 09:26:15;;;;;;;2.15;1.13;;;24.90;81.40;;;;;;4129551;28;20054;-74
2022/07/04 09:28:28;;;;;;;2.85;0.57;;;25.00;83.10;;;;;;4128751;28;20035;-74
2022/07/04 09:30:29;;;;;;;2.47;1.05;;;25.00;84.10;;;;;;4126763;28;20057;-75
2022/07/04 09:32:37;;;;;;;1.58;0.50;;;24.90;81.70;;;;;;4127200;28;20088;-75
2022/07/04 09:34:57;;;;;;;1.80;0.65;;;24.90;83.50;;;;;;4127312;28;20034;-73
2022/07/04 09:36:58;;;;;;;1.63;0.70;;;25.00;83.50;;;;;;4115336;28;20026;-75
2022/07/04 09:39:05;;;;;;;3.63;1.33;;;25.00;83.50;;;;;;4118202;28;20126;-74
2022/07/04 09:41:24;;;;;;;2.10;0.50;;;24.90;78.60;;;;;;4128602;28;20375;-74
2022/07/04 09:43:25;;;;;;;1.35;0.65;;;24.90;80.10;;;;;;4128098;28;20069;-74
2022/07/04 09:45:28;;;;;;;1.13;0.50;;;24.90;80.70;;;;;;4124910;28;20047;-75
2022/07/04 09:47:29;;;;;;;1.73;0.70;;;24.90;81.20;;;;;;4128240;28;20375;-74
2022/07/04 09:49:30;;;;;;;0.63;0.40;;;25.00;83.60;;;;;;4126428;28;20026;-74
2022/07/04 09:51:39;;;;;;;1.48;0.60;;;25.10;83.10;;;;;;4125151;28;20129;-75
2022/07/04 09:53:40;;;;;;;1.73;0.77;;;25.10;81.30;;;;;;4131709;28;20038;-74
2022/07/04 09:55:41;;;;;;;3.78;0.70;;;25.10;81.80;;;;;;4128914;28;20030;-74
2022/07/04 09:57:45;;;;;;;2.08;0.70;;;25.20;82.90;;;;;;4127926;28;20046;-73
2022/07/04 09:59:45;;;;;;;1.80;0.52;;;25.30;80.20;;;;;;4123157;28;20510;-74
2022/07/04 10:01:47;;;;;;;4.10;0.70;;;25.30;78.40;;;;;;4127863;28;20030;-75
2022/07/04 10:03:51;;;;;;;1.33;0.50;;;25.30;79.50;;;;;;4127863;28;20092;-75
2022/07/04 10:06:06;;;;;;;1.27;0.57;;;25.30;79.70;;;;;;4125017;28;20026;-75
2022/07/04 10:08:07;;;;;;;1.63;0.47;;;25.30;77.90;;;;;;4120485;28;20051;-74
2022/07/04 10:10:30;;;;;;;1.02;0.52;;;25.20;79.50;;;;;;4123003;28;20043;-75
2022/07/04 10:12:31;;;;;;;2.75;0.98;;;25.20;81.20;;;;;;4121444;28;20078;-73
2022/07/04 10:14:31;;;;;;;3.45;1.10;;;25.30;79.00;;;;;;4119887;28;20027;-73
2022/07/04 10:16:32;;;;;;;2.70;0.93;;;25.30;79.30;;;;;;4117156;28;20109;-74
2022/07/04 10:18:34;;;;;;;1.80;0.85;;;25.30;78.80;;;;;;4114960;28;20034;-75
2022/07/04 10:20:36;;;;;;;4.77;1.00;;;25.30;77.30;;;;;;4113143;28;20035;-74
2022/07/04 10:22:37;;;;;;;2.10;0.70;;;25.40;79.40;;;;;;4112908;28;20301;-74
2022/07/04 10:24:38;;;;;;;2.88;0.77;;;25.40;78.30;;;;;;4142203;28;20034;-75
2022/07/04 10:26:38;;;;;;;2.13;0.60;;;25.50;77.80;;;;;;4145802;28;20137;-75
2022/07/04 10:28:40;;;;;;;1.85;0.60;;;25.50;76.60;;;;;;4136278;28;20185;-74
2022/07/04 10:30:41;;;;;;;3.20;0.87;;;25.50;81.80;;;;;;4128658;28;20034;-74
2022/07/04 10:32:45;;;;;;;1.13;0.88;;;25.60;82.30;;;;;;4136281;28;20117;-75
2022/07/04 10:34:45;;;;;;;1.52;0.63;;;25.60;79.40;;;;;;4134021;28;20026;-75
2022/07/04 10:36:53;;;;;;;1.55;0.40;;;25.70;78.30;;;;;;4128836;28;20056;-75
2022/07/04 10:39:02;;;;;;;1.90;0.47;;;25.70;77.10;;;;;;4128606;28;20038;-74
2022/07/04 10:41:04;;;;;;;1.73;0.50;;;25.70;75.80;;;;;;4111653;28;20050;-75
2022/07/04 10:45:55;;;;;;;1.13;0.60;;;25.70;77.00;;;;;;4113000;28;20042;-74
2022/07/04 10:47:58;;;;;;;0.82;0.60;;;25.70;83.00;;;;;;4128776;28;20042;-75
2022/07/04 10:49:59;;;;;;;1.08;0.50;;;25.80;81.90;;;;;;4127305;28;20037;-75
2022/07/04 10:52:13;;;;;;;1.58;0.77;;;25.80;75.90;;;;;;4128429;28;20161;-74